Forest fire From: 19-07-2018 17:00 Until: 20-07-2018 16:00 warning for: Forest fire Level: Yellow info button
suomi:
Metsäpalovaroitus on voimassa.

svenska:
Varning för skogsbrand gäller.

english:
A forest fire warning is in force. 

Extreme high temperature From: 19-07-2018 17:00 Until: 23:00 warning for: Extreme high temperature Level: Yellow info button
suomi:
Hellevaroitus: Lähivuorokauden aikana on odotettavissa tukalaa hellettä.

svenska:
Varning för värmebölja: Under det närmaste dygnet är den svåra hettan att vänta.

english:
Heat wave warning: Warm weather is expected during the coming 24 hours. 


Thunder radar more information blitzortung!


Löydät sääaseman tiedot myös:

European Weather Network

Finland Weather Exchange

Weather Underground

AWEKAS



Weather Underground säähistoriasivu

Päivittäin yhteenveto Tammikuu 25, 2017 Yksiköt:  Englantilaiset    Metriset   Molemmat
« Edellinen Päivä
Seuraava Päivä »
Päivittäin Viikoittain Kuukausittain Vuosittain Mukautettu
  Korkea: Matala: Keskiarvo:
Lämpötila: TemperatureC °F -5.8 °F -0.2 °F
Kastepiste: DewpointC °F -7.5 °F -1.2 °F
Kosteus: Humidity % 87 % 91 %
Tuulen nopeus: WindSpeedKMH mph 0.0 mph 0 mph
Tuulenpuuska: WindSpeedGustKMH mph - -
Tuuli:- - North
Ilmanpaine: PressurehPa in 1011.1 in -
Sade: 0.0 in    
Historical Graphs
 
 
Taulukkotiedot Tammikuu 25, 2017
Aika Lämpötila Kastepiste Ilmanpaine Tuuli Tuulen nopeus Tuulenpuuska Kosteus Sademäärä (tunneittain)
TemperatureC °F DewpointC °F PressurehPa in Calm     Humidity % HourlyPrecipMM in
00:00 -5.8 °F -7.4 °F 1023.2 in Calm     88 % 0.0 in
00:15 -5.7 °F -7.5 °F 1023.2 in Calm     87 % 0.0 in
00:30 -5.6 °F -7.4 °F 1023.2 in Calm     87 % 0.0 in
00:45 -5.6 °F -7.4 °F 1023.2 in Calm     87 % 0.0 in
01:00 -5.6 °F -7.3 °F 1023.6 in Calm     88 % 0.0 in
01:15 -5.6 °F -7.1 °F 1023.2 in Calm     89 % 0.0 in
01:30 -5.4 °F -6.8 °F 1023.2 in Calm     90 % 0.0 in
01:45 -5.2 °F -6.6 °F 1022.9 in Calm     90 % 0.0 in
02:00 -5.0 °F -6.4 °F 1022.9 in Calm     90 % 0.0 in
02:15 -4.7 °F -6.1 °F 1023.2 in Calm     90 % 0.0 in
02:30 -4.4 °F -5.8 °F 1023.2 in Calm     90 % 0.0 in
02:45 -4.2 °F -5.6 °F 1022.9 in Calm     90 % 0.0 in
03:00 -3.9 °F -5.3 °F 1022.6 in Calm     90 % 0.0 in
03:15 -3.4 °F -5.0 °F 1022.6 in Calm     89 % 0.0 in
03:30 -3.2 °F -4.9 °F 1022.2 in Calm     88 % 0.0 in
03:45 -3.0 °F -4.7 °F 1022.2 in Calm     88 % 0.0 in
04:00 -2.8 °F -4.5 °F 1021.6 in Calm     88 % 0.0 in
04:15 -2.7 °F -4.5 °F 1021.9 in Calm     87 % 0.0 in
04:30 -2.5 °F -4.4 °F 1021.9 in Calm     87 % 0.0 in
04:45 -2.3 °F -4.2 °F 1021.6 in Calm     87 % 0.0 in
05:00 -2.2 °F -4.0 °F 1021.6 in Calm     87 % 0.0 in
05:15 -2.0 °F -3.9 °F 1021.2 in Calm     87 % 0.0 in
05:30 -1.8 °F -3.7 °F 1020.9 in Calm     87 % 0.0 in
05:45 -1.8 °F -3.7 °F 1020.5 in Calm     87 % 0.0 in
06:00 -1.7 °F -3.5 °F 1020.2 in Calm     87 % 0.0 in
06:15 -1.5 °F -3.4 °F 1019.9 in Calm     87 % 0.0 in
06:30 -1.4 °F -3.3 °F 1019.9 in Calm     87 % 0.0 in
06:45 -1.4 °F -3.3 °F 1019.5 in Calm     87 % 0.0 in
07:00 -1.3 °F -3.2 °F 1019.2 in Calm     87 % 0.0 in
07:15 -1.3 °F -3.0 °F 1018.8 in Calm     88 % 0.0 in
07:30 -1.2 °F -3.0 °F 1018.8 in Calm     88 % 0.0 in
07:45 -1.1 °F -3.0 °F 1018.5 in Calm     87 % 0.0 in
08:00 -1.0 °F -2.9 °F 1018.8 in Calm     87 % 0.0 in
08:15 -0.9 °F -2.7 °F 1018.5 in Calm     88 % 0.0 in
08:30 -0.8 °F -2.6 °F 1018.5 in Calm     88 % 0.0 in
08:45 -0.8 °F -2.5 °F 1018.5 in Calm     88 % 0.0 in
09:00 -0.8 °F -2.4 °F 1016.8 in Calm     89 % 0.0 in
09:15 -0.9 °F -2.2 °F 1017.2 in Calm     91 % 0.0 in
09:30 -0.8 °F -2.2 °F 1017.5 in Calm     90 % 0.0 in
09:45 -0.7 °F -2.1 °F 1017.2 in Calm     90 % 0.0 in
10:00 -0.5 °F -1.9 °F 1017.2 in Calm     90 % 0.0 in
10:15 -0.4 °F -1.7 °F 1016.8 in Calm     91 % 0.0 in
10:30 -0.6 °F -1.5 °F 1016.5 in Calm     93 % 0.0 in
10:45 -0.3 °F -1.2 °F 1016.1 in Calm     94 % 0.0 in
11:00 0.1 °F -0.8 °F 1015.8 in Calm     94 % 0.0 in
11:15 0.3 °F -0.5 °F 1015.8 in Calm     94 % 0.0 in
11:30 0.6 °F -0.4 °F 1015.8 in Calm     93 % 0.0 in
11:45 0.8 °F -0.3 °F 1015.5 in Calm     92 % 0.0 in
12:00 0.9 °F -0.2 °F 1015.1 in Calm     92 % 0.0 in
12:15 1.0 °F -0.2 °F 1015.1 in Calm     92 % 0.0 in
12:30 1.1 °F 0.1 °F 1015.1 in Calm     93 % 0.0 in
12:45 1.1 °F 0.1 °F 1015.1 in Calm     93 % 0.0 in
13:00 1.2 °F 0.3 °F 1015.1 in Calm     94 % 0.0 in
13:15 1.2 °F 0.5 °F 1014.4 in Calm     95 % 0.0 in
13:30 1.2 °F 0.5 °F 1014.8 in Calm     95 % 0.0 in
13:45 1.3 °F 0.6 °F 1014.8 in Calm     95 % 0.0 in
14:00 1.4 °F 0.7 °F 1014.4 in Calm     95 % 0.0 in
14:15 1.4 °F 0.7 °F 1014.4 in Calm     95 % 0.0 in
14:30 1.5 °F 0.9 °F 1014.1 in Calm     96 % 0.0 in
14:45 1.6 °F 1.0 °F 1013.4 in Calm     96 % 0.0 in
15:00 1.7 °F 1.0 °F 1013.8 in Calm     95 % 0.0 in
15:15 1.8 °F 1.2 °F 1013.8 in Calm     96 % 0.0 in
15:30 1.8 °F 1.2 °F 1013.4 in Calm     96 % 0.0 in
15:45 1.8 °F 1.3 °F 1013.4 in Calm     96 % 0.0 in
16:00 1.9 °F 1.4 °F 1013.4 in Calm     96 % 0.0 in
16:15 1.9 °F 1.4 °F 1013.4 in Calm     96 % 0.0 in
16:30 2.0 °F 1.4 °F 1013.4 in Calm     96 % 0.0 in
16:45 2.1 °F 1.5 °F 1013.4 in Calm     96 % 0.0 in
17:00 2.1 °F 1.5 °F 1013.1 in Calm     96 % 0.0 in
17:15 2.1 °F 1.5 °F 1013.1 in Calm     96 % 0.0 in
17:30 2.2 °F 1.7 °F 1013.1 in Calm     97 % 0.0 in
17:45 2.3 °F 1.9 °F 1012.8 in Calm     97 % 0.0 in
18:00 2.3 °F 1.9 °F 1012.8 in Calm     97 % 0.0 in
18:15 2.4 °F 2.0 °F 1012.8 in Calm     97 % 0.0 in
18:30 2.4 °F 2.0 °F 1013.1 in Calm     97 % 0.0 in
18:45 2.4 °F 2.0 °F 1012.8 in Calm     97 % 0.0 in
19:00 2.4 °F 2.0 °F 1012.8 in Calm     97 % 0.0 in
19:15 2.5 °F 2.1 °F 1012.4 in Calm     97 % 0.0 in
19:30 2.5 °F 2.1 °F 1012.4 in Calm     97 % 0.0 in
19:45 2.5 °F 2.1 °F 1012.4 in Calm     97 % 0.0 in
20:00 2.4 °F 2.0 °F 1012.4 in Calm     97 % 0.0 in
20:15 2.4 °F 2.0 °F 1012.4 in Calm     97 % 0.0 in
20:30 2.4 °F 2.0 °F 1012.4 in Calm     97 % 0.0 in
20:45 2.4 °F 2.0 °F 1012.1 in Calm     97 % 0.0 in
21:00 2.5 °F 2.1 °F 1011.7 in Calm     97 % 0.0 in
21:15 2.4 °F 1.9 °F 1011.7 in Calm     96 % 0.0 in
21:30 2.5 °F 1.9 °F 1011.7 in Calm     96 % 0.0 in
21:45 2.5 °F 1.9 °F 1011.4 in Calm     96 % 0.0 in
22:00 2.4 °F 1.9 °F 1011.4 in Calm     96 % 0.0 in
22:15 2.4 °F 1.9 °F 1011.1 in Calm     96 % 0.0 in
22:30 2.4 °F 1.9 °F 1011.4 in Calm     96 % 0.0 in
22:45 2.4 °F 1.9 °F 1011.4 in Calm     96 % 0.0 in
23:00 2.4 °F 1.7 °F 1011.1 in Calm     95 % 0.0 in
23:15 2.4 °F 1.7 °F 1011.7 in Calm     95 % 0.0 in
23:30 2.4 °F 1.9 °F 1011.7 in Calm     96 % 0.0 in
23:45 2.4 °F 1.7 °F 1011.4 in Calm     95 % 0.0 in
Esan sääasema
Terveisin Weather Underground - 2.75 mb

Alkuperäinen skripti  Jim McMurry - jmcmurry@mwt.net Sovitettu myös templatelle  Wim van der Kuil - Leuven-Template.eu

Laitteet joita käytämme:

Sääasema
Davis VP2

Sääasemaohjelma
Cumulus

Sääaseman tietokone
Asus EeePC

Palveluntarjoaja
Suncomet

Davis VP2

Cumulus

Asus EeePC

Suncomet